createdAt,value
2018-10-21T00:00:20.388Z,69.90
2018-10-21T00:00:52.990Z,69.80
2018-10-21T00:01:25.586Z,69.80
2018-10-21T00:01:58.211Z,69.80
2018-10-21T00:02:30.854Z,69.80
2018-10-21T00:03:03.479Z,69.80
2018-10-21T00:03:36.096Z,69.90
2018-10-21T00:04:08.667Z,69.90
2018-10-21T00:04:41.281Z,70.00
2018-10-21T00:05:13.907Z,70.00
2018-10-21T00:05:46.530Z,70.10
2018-10-21T00:06:19.151Z,70.00
2018-10-21T00:06:51.734Z,70.00
2018-10-21T00:07:24.370Z,70.10
2018-10-21T00:07:56.928Z,70.30
2018-10-21T00:08:29.503Z,70.40
2018-10-21T00:09:02.190Z,70.40
2018-10-21T00:09:34.778Z,70.40
2018-10-21T00:10:08.763Z,70.30
2018-10-21T00:10:41.380Z,70.20
2018-10-21T00:11:14.234Z,70.00
2018-10-21T00:11:46.872Z,69.90
2018-10-21T00:12:19.480Z,69.70
2018-10-21T00:12:52.072Z,69.40
2018-10-21T00:13:24.686Z,69.30
2018-10-21T00:13:57.271Z,69.30
2018-10-21T00:14:29.859Z,69.40
2018-10-21T00:15:02.541Z,69.30
2018-10-21T00:15:35.280Z,69.30
2018-10-21T00:16:07.735Z,69.10
2018-10-21T00:16:40.324Z,68.60
2018-10-21T00:17:12.912Z,68.80
2018-10-21T00:17:45.474Z,68.60
2018-10-21T00:18:18.104Z,68.50
2018-10-21T00:18:50.674Z,68.40
2018-10-21T00:19:23.303Z,68.50
2018-10-21T00:19:55.870Z,68.40
2018-10-21T00:20:28.448Z,68.30
2018-10-21T00:21:01.060Z,68.00
2018-10-21T00:21:33.641Z,68.20
2018-10-21T00:22:06.219Z,68.40
2018-10-21T00:22:38.779Z,68.60
2018-10-21T00:23:11.336Z,68.60
2018-10-21T00:23:43.918Z,68.80
2018-10-21T00:24:16.503Z,69.10
2018-10-21T00:24:49.112Z,69.30
2018-10-21T00:25:21.750Z,69.50
2018-10-21T00:25:54.342Z,69.50
2018-10-21T00:26:26.960Z,69.50
2018-10-21T00:26:59.539Z,69.60
2018-10-21T00:27:32.127Z,69.40
2018-10-21T00:28:05.055Z,69.10
2018-10-21T00:28:37.663Z,69.20
2018-10-21T00:29:10.271Z,69.20
2018-10-21T00:29:42.966Z,69.20
2018-10-21T00:30:15.536Z,69.40
2018-10-21T00:30:48.133Z,69.30
2018-10-21T00:31:20.728Z,69.20
2018-10-21T00:31:53.304Z,69.30
2018-10-21T00:32:57.925Z,69.40
2018-10-21T00:33:30.528Z,69.40
2018-10-21T00:34:03.134Z,69.30
2018-10-21T00:34:35.746Z,69.10
2018-10-21T00:35:08.412Z,68.90
2018-10-21T00:35:41.001Z,68.90
2018-10-21T00:36:13.608Z,68.90
2018-10-21T00:36:46.183Z,69.00
2018-10-21T00:37:18.772Z,69.10
2018-10-21T00:37:51.376Z,69.30
2018-10-21T00:38:23.993Z,69.50
2018-10-21T00:38:56.540Z,69.50
2018-10-21T00:39:29.151Z,69.80
2018-10-21T00:40:01.789Z,70.10
2018-10-21T00:40:34.372Z,70.10
2018-10-21T00:41:06.944Z,70.20
2018-10-21T00:41:39.634Z,70.30
2018-10-21T00:42:12.236Z,70.30
2018-10-21T00:42:44.833Z,70.50
2018-10-21T00:43:17.431Z,70.60
2018-10-21T00:43:50.063Z,70.60
2018-10-21T00:44:22.634Z,70.60
2018-10-21T00:44:55.301Z,70.60
2018-10-21T00:45:27.945Z,70.50
2018-10-21T00:46:00.555Z,70.50
2018-10-21T00:46:33.147Z,70.50
2018-10-21T00:47:05.728Z,70.50
2018-10-21T00:47:38.497Z,70.60
2018-10-21T00:48:11.100Z,70.70
2018-10-21T00:48:43.654Z,70.50
2018-10-21T00:49:16.238Z,70.50
2018-10-21T00:49:48.814Z,70.20
2018-10-21T00:50:21.395Z,70.70
2018-10-21T00:50:54.008Z,70.20
2018-10-21T00:51:26.582Z,70.20
2018-10-21T00:51:59.157Z,70.30
2018-10-21T00:52:31.753Z,70.40
2018-10-21T00:53:04.450Z,70.60
2018-10-21T00:53:37.042Z,70.70
2018-10-21T00:54:14.546Z,70.90
2018-10-21T00:54:47.232Z,70.80
2018-10-21T00:55:19.835Z,70.90
2018-10-21T00:55:52.468Z,71.00
2018-10-21T00:56:25.096Z,71.10
2018-10-21T00:56:57.698Z,71.30
2018-10-21T00:57:30.226Z,71.40
2018-10-21T00:58:02.823Z,71.30
2018-10-21T00:58:35.383Z,71.30
2018-10-21T00:59:08.830Z,71.50
2018-10-21T00:59:41.384Z,71.50
2018-10-21T01:00:13.983Z,71.60
2018-10-21T01:00:46.605Z,71.60
2018-10-21T01:01:19.178Z,71.70
2018-10-21T01:01:51.787Z,71.80
2018-10-21T01:02:24.445Z,71.80
2018-10-21T01:02:57.403Z,71.90
2018-10-21T01:03:29.992Z,71.90
2018-10-21T01:04:02.655Z,71.70
2018-10-21T01:04:35.176Z,71.80
2018-10-21T01:05:09.100Z,71.70
2018-10-21T01:05:41.742Z,71.60
2018-10-21T01:06:14.347Z,71.50
2018-10-21T01:06:46.930Z,71.50
2018-10-21T01:07:19.677Z,71.50
2018-10-21T01:07:52.731Z,71.50
2018-10-21T01:08:25.336Z,71.70
2018-10-21T01:08:57.982Z,71.80
2018-10-21T01:09:30.567Z,71.90
2018-10-21T01:10:03.254Z,72.00
2018-10-21T01:10:35.831Z,72.00
2018-10-21T01:11:08.418Z,72.00
2018-10-21T01:11:41.855Z,71.80
2018-10-21T01:12:18.040Z,71.80
2018-10-21T01:12:50.659Z,71.80
2018-10-21T01:13:23.265Z,71.80
2018-10-21T01:13:55.847Z,71.80
2018-10-21T01:14:28.406Z,71.70
2018-10-21T01:15:01.113Z,71.70
2018-10-21T01:15:33.684Z,71.70
2018-10-21T01:16:06.302Z,71.60
2018-10-21T01:16:38.872Z,71.70
2018-10-21T01:17:11.808Z,71.80
2018-10-21T01:17:44.367Z,71.80
2018-10-21T01:18:17.015Z,71.90
2018-10-21T01:18:51.575Z,71.90
2018-10-21T01:19:26.716Z,72.00
2018-10-21T01:20:02.165Z,72.20
2018-10-21T01:20:36.819Z,72.20
2018-10-21T01:21:11.567Z,72.20
2018-10-21T01:21:46.507Z,72.00
2018-10-21T01:22:21.129Z,71.80
2018-10-21T01:22:53.729Z,71.70
2018-10-21T01:23:26.395Z,71.90
2018-10-21T01:23:58.980Z,71.70
2018-10-21T01:24:31.574Z,71.70
2018-10-21T01:25:04.451Z,71.70
2018-10-21T01:25:37.029Z,71.60
2018-10-21T01:26:09.608Z,71.80
2018-10-21T01:26:42.207Z,71.80
2018-10-21T01:27:14.849Z,71.90
2018-10-21T01:27:47.362Z,72.10
2018-10-21T01:28:19.951Z,72.70
2018-10-21T01:28:52.554Z,72.10
2018-10-21T01:29:25.121Z,72.20
2018-10-21T01:29:57.852Z,72.10
2018-10-21T01:30:30.414Z,72.20
2018-10-21T01:31:02.974Z,72.20
2018-10-21T01:31:35.550Z,72.20
2018-10-21T01:32:08.107Z,72.00
2018-10-21T01:32:40.723Z,72.00
2018-10-21T01:33:13.395Z,72.10
2018-10-21T01:33:45.951Z,72.10
2018-10-21T01:34:18.548Z,72.00
2018-10-21T01:34:51.172Z,72.00
2018-10-21T01:35:23.750Z,71.90
2018-10-21T01:35:56.330Z,71.90
2018-10-21T01:36:29.077Z,71.80
2018-10-21T01:37:01.553Z,71.60
2018-10-21T01:37:34.099Z,71.60
2018-10-21T01:38:06.698Z,71.80
2018-10-21T01:38:39.287Z,71.70
2018-10-21T01:39:12.252Z,71.80
2018-10-21T01:40:52.139Z,71.60
2018-10-21T01:41:24.690Z,71.70
2018-10-21T01:41:57.279Z,71.70
2018-10-21T01:42:29.876Z,71.70
2018-10-21T01:43:02.844Z,71.70
2018-10-21T01:43:35.444Z,71.80
2018-10-21T01:44:08.013Z,71.80
2018-10-21T01:44:40.588Z,71.90
2018-10-21T01:45:13.238Z,71.70
2018-10-21T01:45:45.807Z,71.70
2018-10-21T01:46:18.410Z,71.90
2018-10-21T01:46:50.991Z,72.00
2018-10-21T01:47:23.590Z,72.00
2018-10-21T01:47:57.778Z,72.00
2018-10-21T01:48:31.170Z,72.10
2018-10-21T01:49:03.767Z,72.10
2018-10-21T01:49:36.352Z,72.20
2018-10-21T01:50:08.926Z,72.30
2018-10-21T01:50:41.514Z,72.30
2018-10-21T01:51:14.104Z,72.50
2018-10-21T01:51:46.710Z,72.60
2018-10-21T01:52:19.259Z,72.70
2018-10-21T01:52:52.069Z,72.60
2018-10-21T01:53:24.957Z,72.50
2018-10-21T01:53:57.519Z,72.50
2018-10-21T01:54:30.099Z,72.70
2018-10-21T01:55:02.688Z,72.60
2018-10-21T01:55:35.279Z,72.50
2018-10-21T01:56:07.847Z,72.50
2018-10-21T01:56:40.390Z,72.50
2018-10-21T01:57:13.010Z,72.50
2018-10-21T01:57:45.676Z,72.40
2018-10-21T01:58:18.319Z,72.50
2018-10-21T01:58:50.916Z,72.50
2018-10-21T01:59:23.472Z,72.50
2018-10-21T01:59:56.053Z,72.50
2018-10-21T02:00:29.392Z,72.30
2018-10-21T02:01:02.032Z,72.10
2018-10-21T02:01:34.602Z,72.10
2018-10-21T02:02:07.252Z,72.10
2018-10-21T02:02:39.866Z,72.20
2018-10-21T02:03:12.579Z,72.10
2018-10-21T02:03:45.095Z,72.10
2018-10-21T02:04:17.711Z,72.20
2018-10-21T02:04:50.271Z,72.50
2018-10-21T02:05:23.078Z,72.70
2018-10-21T02:05:55.694Z,72.90
2018-10-21T02:06:28.351Z,73.00
2018-10-21T02:07:00.930Z,72.90
2018-10-21T02:07:33.474Z,72.90
2018-10-21T02:08:06.144Z,73.00
2018-10-21T02:08:38.776Z,72.90
2018-10-21T02:09:11.468Z,72.80
2018-10-21T02:09:43.975Z,72.90
2018-10-21T02:10:16.556Z,73.00
2018-10-21T02:10:49.139Z,73.00
2018-10-21T02:11:21.731Z,73.10
2018-10-21T02:11:54.298Z,73.20
2018-10-21T02:12:26.983Z,73.40
2018-10-21T02:12:59.582Z,73.50
2018-10-21T02:13:32.202Z,73.60
2018-10-21T02:14:05.107Z,73.70
2018-10-21T02:14:37.639Z,73.70
2018-10-21T02:15:11.513Z,73.60
2018-10-21T02:15:43.979Z,73.30
2018-10-21T02:16:16.564Z,73.20
2018-10-21T02:16:49.122Z,73.10
2018-10-21T02:17:21.684Z,73.00
2018-10-21T02:17:54.260Z,73.10
2018-10-21T02:18:26.863Z,73.20
2018-10-21T02:18:59.504Z,73.20
2018-10-21T02:19:32.092Z,73.20
2018-10-21T02:20:05.159Z,73.30
2018-10-21T02:20:37.739Z,73.40
2018-10-21T02:21:10.339Z,73.30
2018-10-21T02:21:42.900Z,73.40
2018-10-21T02:22:15.496Z,73.30
2018-10-21T02:22:48.395Z,73.10
2018-10-21T02:23:20.978Z,73.10
2018-10-21T02:23:53.555Z,73.30
2018-10-21T02:24:26.181Z,73.40
2018-10-21T02:24:58.770Z,73.60
2018-10-21T02:25:31.339Z,73.50
2018-10-21T02:26:03.986Z,73.50
2018-10-21T02:26:36.609Z,73.40
2018-10-21T02:27:09.217Z,73.40
2018-10-21T02:27:42.454Z,73.40
2018-10-21T02:28:15.022Z,73.20
2018-10-21T02:28:47.620Z,73.10
2018-10-21T02:29:20.204Z,72.90
2018-10-21T02:29:52.845Z,72.80
2018-10-21T02:30:27.774Z,72.80
2018-10-21T02:31:00.407Z,72.70
2018-10-21T02:31:32.979Z,72.50
2018-10-21T02:32:05.828Z,72.30
2018-10-21T02:32:38.394Z,72.10
2018-10-21T02:33:11.041Z,72.20
2018-10-21T02:33:43.633Z,72.10
2018-10-21T02:34:16.189Z,72.10
2018-10-21T02:34:48.775Z,72.00
2018-10-21T02:35:21.779Z,71.90
2018-10-21T02:35:54.362Z,71.90
2018-10-21T02:36:26.964Z,71.80
2018-10-21T02:36:59.606Z,72.50
2018-10-21T02:37:32.204Z,72.00
2018-10-21T02:38:05.109Z,72.00
2018-10-21T02:38:37.663Z,72.00
2018-10-21T02:39:10.254Z,72.00
2018-10-21T02:39:42.810Z,71.80
2018-10-21T02:41:37.463Z,71.80
2018-10-21T02:42:10.075Z,71.90
2018-10-21T02:42:42.644Z,72.20
2018-10-21T02:43:15.245Z,72.20
2018-10-21T02:43:47.869Z,72.20
2018-10-21T02:44:21.249Z,72.30
2018-10-21T02:44:53.843Z,72.30
2018-10-21T02:45:26.415Z,72.50
2018-10-21T02:45:58.998Z,72.50
2018-10-21T02:46:32.020Z,72.70
2018-10-21T02:47:04.797Z,72.70
2018-10-21T02:47:37.393Z,72.70
2018-10-21T02:48:09.966Z,72.50
2018-10-21T02:48:42.706Z,72.60
2018-10-21T02:49:16.101Z,72.60
2018-10-21T02:49:48.661Z,72.60
2018-10-21T02:50:21.243Z,72.70
2018-10-21T02:50:53.814Z,73.20
2018-10-21T02:51:26.402Z,72.60
2018-10-21T02:52:04.779Z,72.60
2018-10-21T02:52:37.414Z,73.20
2018-10-21T02:53:10.039Z,72.70
2018-10-21T02:53:42.587Z,72.70
2018-10-21T02:54:15.226Z,72.60
2018-10-21T02:54:47.819Z,72.70
2018-10-21T02:55:20.382Z,72.90
2018-10-21T02:55:52.938Z,73.00
2018-10-21T02:56:25.526Z,73.20
2018-10-21T02:56:58.302Z,73.40
2018-10-21T02:57:30.952Z,73.40
2018-10-21T02:58:03.565Z,73.40
2018-10-21T02:58:36.735Z,73.20
2018-10-21T02:59:09.340Z,73.20
2018-10-21T02:59:41.915Z,73.30
2018-10-21T03:00:14.478Z,73.00
2018-10-21T03:00:47.050Z,73.10
2018-10-21T03:01:19.681Z,73.10
2018-10-21T03:01:52.334Z,73.30
2018-10-21T03:02:24.890Z,73.90
2018-10-21T03:02:57.499Z,73.60
2018-10-21T03:03:30.086Z,73.60
2018-10-21T03:04:02.754Z,73.90
2018-10-21T03:04:35.348Z,74.10
2018-10-21T03:05:07.915Z,74.20
2018-10-21T03:05:40.485Z,74.10
2018-10-21T03:06:13.087Z,74.10
2018-10-21T03:06:45.689Z,74.00
2018-10-21T03:07:18.280Z,74.00
2018-10-21T03:07:50.884Z,73.80
2018-10-21T03:08:23.488Z,73.70
2018-10-21T03:08:56.092Z,73.60
2018-10-21T03:09:29.139Z,73.60
2018-10-21T03:10:01.711Z,73.60
2018-10-21T03:10:34.319Z,74.20
2018-10-21T03:11:07.029Z,73.70
2018-10-21T03:11:39.611Z,73.70
2018-10-21T03:12:12.185Z,73.60
2018-10-21T03:12:44.795Z,73.60
2018-10-21T03:13:17.365Z,73.60
2018-10-21T03:13:49.966Z,73.50
2018-10-21T03:14:22.596Z,73.40
2018-10-21T03:14:55.205Z,73.30
2018-10-21T03:15:27.816Z,73.30
2018-10-21T03:16:00.495Z,73.30
2018-10-21T03:16:33.067Z,73.50
2018-10-21T03:17:05.629Z,73.60
2018-10-21T03:17:38.219Z,73.50
2018-10-21T03:18:10.804Z,73.40
2018-10-21T03:18:43.394Z,73.50
2018-10-21T03:19:16.395Z,73.50
2018-10-21T03:19:49.006Z,73.60
2018-10-21T03:20:21.603Z,73.80
2018-10-21T03:20:54.501Z,73.90
2018-10-21T03:21:27.102Z,73.90
2018-10-21T03:21:59.695Z,73.90
2018-10-21T03:22:32.307Z,74.00
2018-10-21T03:23:05.294Z,73.90
2018-10-21T03:23:37.883Z,73.90
2018-10-21T03:24:10.467Z,73.90
2018-10-21T03:24:43.046Z,73.90
2018-10-21T03:25:15.665Z,73.90
2018-10-21T03:25:48.239Z,73.90
2018-10-21T03:26:20.835Z,74.00
2018-10-21T03:26:53.435Z,74.20
2018-10-21T03:27:26.011Z,74.30
2018-10-21T03:27:58.598Z,74.30
2018-10-21T03:28:31.791Z,74.10
2018-10-21T03:29:04.470Z,73.90
2018-10-21T03:29:37.069Z,73.80
2018-10-21T03:30:09.669Z,73.60
2018-10-21T03:30:42.366Z,73.40
2018-10-21T03:31:14.940Z,73.20
2018-10-21T03:31:47.518Z,73.00
2018-10-21T03:32:20.109Z,73.00
2018-10-21T03:32:52.743Z,73.00
2018-10-21T03:33:25.408Z,72.90
2018-10-21T03:33:58.016Z,73.10
2018-10-21T03:34:30.459Z,73.00
2018-10-21T03:35:03.113Z,73.00
2018-10-21T03:35:36.165Z,73.10
2018-10-21T03:36:08.766Z,73.00
2018-10-21T03:36:41.365Z,72.80
2018-10-21T03:37:13.964Z,72.80
2018-10-21T03:37:46.577Z,72.90
2018-10-21T03:38:19.161Z,73.40
2018-10-21T03:38:51.767Z,72.80
2018-10-21T03:39:24.379Z,73.40
2018-10-21T03:39:57.010Z,72.80
2018-10-21T03:40:29.555Z,72.80
2018-10-21T03:41:02.128Z,72.70
2018-10-21T03:41:34.808Z,72.50
2018-10-21T03:42:07.387Z,72.50
2018-10-21T03:42:40.024Z,72.50
2018-10-21T03:43:12.631Z,72.50
2018-10-21T03:43:45.195Z,72.60
2018-10-21T03:44:17.800Z,72.70
2018-10-21T03:44:50.396Z,72.60
2018-10-21T03:45:23.828Z,72.50
2018-10-21T03:45:56.459Z,72.60
2018-10-21T03:46:28.971Z,72.60
2018-10-21T03:47:01.593Z,72.80
2018-10-21T03:47:34.163Z,72.90
2018-10-21T03:48:06.738Z,73.00
2018-10-21T03:48:39.376Z,73.10
2018-10-21T03:49:11.943Z,73.30
2018-10-21T03:49:44.502Z,73.30
2018-10-21T03:50:17.203Z,73.30
2018-10-21T03:50:49.770Z,73.40
2018-10-21T03:51:22.331Z,73.50
2018-10-21T03:51:54.901Z,73.30
2018-10-21T03:52:27.519Z,73.30
2018-10-21T03:53:00.172Z,73.20
2018-10-21T03:53:32.778Z,73.30
2018-10-21T03:54:05.442Z,73.30
2018-10-21T03:54:39.903Z,73.20
2018-10-21T03:55:12.539Z,73.20
2018-10-21T03:55:45.236Z,73.10
2018-10-21T03:56:17.855Z,72.90
2018-10-21T03:56:50.476Z,73.00
2018-10-21T03:57:23.113Z,73.00
2018-10-21T03:57:55.795Z,73.10
2018-10-21T03:58:28.433Z,73.50
2018-10-21T03:59:01.121Z,72.90
2018-10-21T03:59:33.724Z,72.90
2018-10-21T04:00:07.672Z,72.80
2018-10-21T04:00:40.358Z,72.90
2018-10-21T04:01:12.974Z,73.00
2018-10-21T04:01:45.573Z,73.10
2018-10-21T04:02:18.220Z,73.10
2018-10-21T04:02:51.012Z,73.20
2018-10-21T04:03:23.639Z,73.30
2018-10-21T04:03:56.326Z,73.40
2018-10-21T04:04:28.931Z,73.40
2018-10-21T04:05:01.575Z,73.40
2018-10-21T04:05:34.686Z,73.40
2018-10-21T04:06:07.307Z,73.30
2018-10-21T04:06:39.917Z,73.20
2018-10-21T04:07:12.542Z,73.50
2018-10-21T04:07:45.177Z,72.80
2018-10-21T04:08:17.907Z,72.80
2018-10-21T04:08:50.550Z,72.70
2018-10-21T04:09:23.159Z,72.80
2018-10-21T04:09:55.759Z,72.90
2018-10-21T04:10:28.407Z,73.00
2018-10-21T04:11:01.023Z,72.90
2018-10-21T04:11:33.623Z,72.80
2018-10-21T04:12:06.230Z,72.90
2018-10-21T04:12:38.835Z,72.80
2018-10-21T04:13:11.466Z,72.90
2018-10-21T04:13:44.068Z,73.00
2018-10-21T04:14:16.737Z,73.00
2018-10-21T04:14:49.358Z,73.10
2018-10-21T04:15:21.999Z,73.20
2018-10-21T04:15:54.705Z,73.20
2018-10-21T04:16:27.314Z,73.20
2018-10-21T04:16:59.915Z,73.20
2018-10-21T04:17:32.507Z,73.30
2018-10-21T04:18:05.144Z,73.40
2018-10-21T04:18:37.747Z,73.40
2018-10-21T04:19:10.326Z,73.60
2018-10-21T04:19:42.962Z,73.70
2018-10-21T04:20:15.567Z,74.00
2018-10-21T04:20:48.146Z,74.10
2018-10-21T04:21:20.747Z,74.20
2018-10-21T04:21:53.388Z,74.30
2018-10-21T04:22:26.036Z,74.30
2018-10-21T04:22:59.852Z,74.30
2018-10-21T04:23:32.479Z,74.20
2018-10-21T04:24:05.138Z,74.00
2018-10-21T04:24:37.733Z,73.90
2018-10-21T04:25:10.371Z,73.80
2018-10-21T04:25:42.979Z,73.70
2018-10-21T04:26:15.575Z,73.60
2018-10-21T04:26:48.152Z,73.60
2018-10-21T04:27:20.770Z,73.50
2018-10-21T04:27:54.306Z,73.40
2018-10-21T04:28:26.912Z,73.30
2018-10-21T04:28:59.556Z,73.10
2018-10-21T04:29:32.184Z,73.10
2018-10-21T04:30:05.813Z,73.20
2018-10-21T04:30:39.584Z,73.20
2018-10-21T04:31:12.331Z,73.30
2018-10-21T04:31:44.941Z,73.40
2018-10-21T04:32:17.668Z,73.40
2018-10-21T04:33:53.630Z,73.30
2018-10-21T04:34:26.231Z,73.20
2018-10-21T04:34:58.833Z,73.10
2018-10-21T04:35:31.881Z,72.90
2018-10-21T04:36:04.531Z,72.80
2018-10-21T04:36:37.208Z,73.30
2018-10-21T04:37:21.255Z,72.90
2018-10-21T04:40:12.270Z,72.80
2018-10-21T04:40:44.844Z,72.90
2018-10-21T04:41:17.476Z,73.10
2018-10-21T04:41:50.124Z,72.80
2018-10-21T04:42:22.760Z,72.80
2018-10-21T04:42:55.409Z,72.70
2018-10-21T04:43:28.044Z,72.60
2018-10-21T04:44:00.679Z,72.50
2018-10-21T04:44:33.288Z,72.50
2018-10-21T04:45:06.502Z,72.50
2018-10-21T04:45:39.211Z,72.40
2018-10-21T04:46:11.917Z,72.50
2018-10-21T04:46:44.619Z,72.60
2018-10-21T04:47:17.244Z,72.70
2018-10-21T04:47:49.855Z,72.80
2018-10-21T04:48:22.471Z,72.80
2018-10-21T04:48:55.101Z,72.80
2018-10-21T04:49:27.759Z,72.60
2018-10-21T04:50:00.387Z,72.70
2018-10-21T04:50:32.991Z,72.70
2018-10-21T04:51:05.615Z,72.80
2018-10-21T04:51:38.212Z,72.70
2018-10-21T04:52:11.205Z,72.50
2018-10-21T04:52:43.691Z,72.60
2018-10-21T04:53:16.336Z,72.60
2018-10-21T04:53:48.951Z,72.50
2018-10-21T04:54:21.566Z,72.40
2018-10-21T04:54:54.162Z,72.40
2018-10-21T04:55:26.775Z,72.30
2018-10-21T04:55:59.363Z,72.30
2018-10-21T04:56:31.979Z,72.30
2018-10-21T04:57:06.584Z,72.70
2018-10-21T04:57:40.376Z,73.20
2018-10-21T04:58:13.148Z,73.00
2018-10-21T04:58:45.718Z,73.10
2018-10-21T04:59:18.352Z,73.20
2018-10-21T04:59:50.970Z,73.20
2018-10-21T05:00:23.578Z,73.10
2018-10-21T05:00:56.187Z,73.10
2018-10-21T05:01:28.882Z,73.00
2018-10-21T05:02:01.808Z,73.20
2018-10-21T05:02:34.430Z,73.30
2018-10-21T05:03:07.090Z,73.20
2018-10-21T05:03:39.676Z,73.30
2018-10-21T05:04:12.318Z,73.10
2018-10-21T05:04:44.912Z,73.20
2018-10-21T05:05:17.554Z,73.20
2018-10-21T05:05:50.180Z,73.30
2018-10-21T05:06:22.846Z,73.40
2018-10-21T05:06:55.447Z,73.60
2018-10-21T05:07:28.175Z,73.60
2018-10-21T05:08:00.804Z,73.60
2018-10-21T05:08:33.415Z,73.60
2018-10-21T05:09:06.306Z,73.60
2018-10-21T05:09:38.933Z,73.50
2018-10-21T05:10:18.047Z,73.60
2018-10-21T05:10:50.639Z,73.60
2018-10-21T05:11:23.376Z,73.60
2018-10-21T05:11:56.001Z,73.60
2018-10-21T05:12:28.608Z,73.70
2018-10-21T05:13:01.435Z,73.60
2018-10-21T05:13:34.086Z,73.70
2018-10-21T05:14:06.703Z,73.70
2018-10-21T05:14:39.340Z,73.70
2018-10-21T05:15:11.993Z,73.60
2018-10-21T05:15:44.591Z,73.60
2018-10-21T05:16:17.332Z,73.60
2018-10-21T05:16:49.872Z,73.70
2018-10-21T05:17:22.467Z,73.70
2018-10-21T05:17:55.171Z,73.90
2018-10-21T05:18:27.771Z,74.00
2018-10-21T05:19:00.439Z,74.00
2018-10-21T05:19:33.062Z,74.00
2018-10-21T05:20:05.763Z,74.00
2018-10-21T05:20:38.416Z,74.00
2018-10-21T05:21:11.015Z,74.00
2018-10-21T05:21:43.618Z,73.90
2018-10-21T05:22:16.312Z,73.80
2018-10-21T05:22:49.140Z,73.80
2018-10-21T05:23:21.738Z,73.50
2018-10-21T05:23:54.343Z,73.50
2018-10-21T05:24:26.979Z,73.60
2018-10-21T05:24:59.602Z,73.40
2018-10-21T05:25:32.234Z,73.20
2018-10-21T05:26:04.854Z,73.60
2018-10-21T05:26:37.917Z,73.30
2018-10-21T05:27:10.555Z,73.20
2018-10-21T05:27:43.192Z,73.00
2018-10-21T05:28:15.828Z,72.70
2018-10-21T05:28:48.456Z,72.60
2018-10-21T05:29:21.096Z,72.40
2018-10-21T05:29:53.850Z,72.20
2018-10-21T05:30:26.488Z,72.10
2018-10-21T05:30:59.120Z,72.10
2018-10-21T05:31:31.892Z,72.20
2018-10-21T05:32:04.667Z,72.20
2018-10-21T05:32:37.251Z,72.10
2018-10-21T05:33:09.865Z,71.90
2018-10-21T05:33:42.496Z,72.10
2018-10-21T05:34:15.173Z,72.10
2018-10-21T05:34:47.728Z,72.10
2018-10-21T05:35:20.730Z,72.30
2018-10-21T05:35:53.356Z,71.90
2018-10-21T05:36:25.963Z,72.00
2018-10-21T05:36:58.567Z,72.10
2018-10-21T05:37:31.190Z,72.00
2018-10-21T05:38:03.861Z,72.00
2018-10-21T05:38:36.459Z,72.00
2018-10-21T05:39:10.307Z,72.10
2018-10-21T05:39:42.899Z,72.00
2018-10-21T05:40:16.918Z,71.70
2018-10-21T05:40:49.536Z,71.60
2018-10-21T05:41:22.201Z,71.90
2018-10-21T05:41:54.824Z,71.80
2018-10-21T05:42:27.451Z,71.80
2018-10-21T05:43:00.044Z,71.70
2018-10-21T05:43:32.672Z,71.60
2018-10-21T05:44:05.455Z,71.80
2018-10-21T05:44:38.081Z,71.80
2018-10-21T05:45:10.699Z,71.80
2018-10-21T05:45:43.354Z,71.80
2018-10-21T05:46:28.302Z,71.90
2018-10-21T05:47:00.964Z,72.00
2018-10-21T05:47:33.921Z,72.00
2018-10-21T05:48:06.595Z,72.00
2018-10-21T05:48:39.224Z,72.10
2018-10-21T05:49:11.911Z,72.20
2018-10-21T05:49:44.526Z,72.20
2018-10-21T05:50:17.327Z,72.30
2018-10-21T05:50:49.944Z,72.50
2018-10-21T05:51:22.559Z,72.60
2018-10-21T05:51:55.193Z,72.60
2018-10-21T05:52:27.826Z,72.70
2018-10-21T05:53:00.423Z,72.60
2018-10-21T05:53:33.022Z,72.70
2018-10-21T05:54:06.126Z,72.80
2018-10-21T05:54:40.637Z,72.80
2018-10-21T05:55:13.905Z,72.70
2018-10-21T05:55:46.526Z,72.80
2018-10-21T05:56:19.158Z,73.50
2018-10-21T05:56:51.758Z,72.90
2018-10-21T05:57:24.395Z,72.90
2018-10-21T05:57:57.110Z,73.00
2018-10-21T05:58:29.710Z,73.00
2018-10-21T05:59:02.348Z,73.00
2018-10-21T05:59:34.947Z,73.00
2018-10-21T06:00:09.511Z,73.00
2018-10-21T06:00:42.127Z,73.00
2018-10-21T06:01:14.802Z,73.10
2018-10-21T06:01:47.940Z,73.10
2018-10-21T06:02:20.571Z,73.00
2018-10-21T06:02:53.282Z,72.70
2018-10-21T06:03:25.950Z,72.40
2018-10-21T06:03:58.879Z,72.40
2018-10-21T06:04:31.463Z,72.30
2018-10-21T06:05:08.868Z,72.40
2018-10-21T06:05:43.771Z,72.50
2018-10-21T06:06:16.406Z,72.70
2018-10-21T06:06:49.036Z,72.70
2018-10-21T06:07:22.055Z,72.70
2018-10-21T06:07:54.728Z,72.80
2018-10-21T06:08:27.469Z,72.70
2018-10-21T06:09:00.079Z,72.80
2018-10-21T06:09:32.702Z,72.90
2018-10-21T06:10:05.677Z,72.90
2018-10-21T06:10:38.307Z,73.10
2018-10-21T06:11:10.981Z,73.10
2018-10-21T06:11:43.647Z,73.10
2018-10-21T06:12:16.271Z,73.20
2018-10-21T06:12:48.887Z,73.20
2018-10-21T06:13:21.556Z,73.30
2018-10-21T06:13:54.167Z,73.20
2018-10-21T06:14:26.795Z,73.30
2018-10-21T06:14:59.432Z,73.40
2018-10-21T06:15:32.119Z,73.30
2018-10-21T06:16:04.932Z,73.20
2018-10-21T06:16:43.090Z,73.20
2018-10-21T06:17:19.124Z,73.30
2018-10-21T06:17:51.723Z,73.30
2018-10-21T06:18:25.929Z,73.30
2018-10-21T06:19:04.636Z,73.20
2018-10-21T06:19:39.284Z,73.30
2018-10-21T06:21:17.979Z,73.30
2018-10-21T06:21:50.619Z,73.40
2018-10-21T06:22:23.280Z,73.50
2018-10-21T06:22:55.931Z,73.70
2018-10-21T06:23:35.229Z,73.80
2018-10-21T06:24:07.807Z,73.90
2018-10-21T06:24:40.470Z,74.30
2018-10-21T06:25:13.107Z,74.20
2018-10-21T06:25:45.755Z,74.30
2018-10-21T06:26:18.387Z,74.60
2018-10-21T06:26:51.089Z,74.80
2018-10-21T06:28:27.028Z,75.30
2018-10-21T06:28:59.709Z,74.90
2018-10-21T06:29:32.354Z,74.80
2018-10-21T06:30:05.760Z,74.90
2018-10-21T06:30:38.388Z,74.90
2018-10-21T06:31:11.111Z,74.90
2018-10-21T06:31:43.839Z,74.90
2018-10-21T06:32:16.493Z,74.90
2018-10-21T06:32:56.768Z,75.00
2018-10-21T06:33:29.645Z,75.10
2018-10-21T06:34:02.319Z,75.10
2018-10-21T06:34:34.932Z,75.10
2018-10-21T06:35:08.239Z,75.10
2018-10-21T06:35:40.888Z,75.10
2018-10-21T06:36:13.514Z,75.10
2018-10-21T06:36:46.203Z,75.20
2018-10-21T06:37:18.826Z,75.20
2018-10-21T06:37:51.427Z,75.20
2018-10-21T06:38:24.067Z,75.30
2018-10-21T06:38:56.714Z,75.40
2018-10-21T06:39:29.390Z,75.50
2018-10-21T06:40:02.339Z,75.50
2018-10-21T06:40:34.971Z,75.60
2018-10-21T06:41:07.600Z,75.80
2018-10-21T06:41:40.226Z,75.60
2018-10-21T06:42:12.884Z,75.40
2018-10-21T06:42:45.511Z,75.50
2018-10-21T06:43:18.116Z,75.40
2018-10-21T06:43:50.733Z,75.40
2018-10-21T06:44:23.366Z,75.30
2018-10-21T06:44:56.049Z,75.10
2018-10-21T06:45:28.757Z,75.00
2018-10-21T06:46:01.360Z,74.50
2018-10-21T06:46:34.045Z,74.40
2018-10-21T06:47:06.652Z,74.70
2018-10-21T06:48:42.612Z,74.70
2018-10-21T06:49:15.241Z,74.60
2018-10-21T06:49:47.862Z,74.80
2018-10-21T06:50:20.635Z,74.70
2018-10-21T06:50:53.278Z,74.80
2018-10-21T06:51:25.913Z,74.80
2018-10-21T06:51:58.522Z,74.80
2018-10-21T06:52:31.147Z,74.80
2018-10-21T06:53:03.833Z,74.70
2018-10-21T06:53:36.479Z,74.50
2018-10-21T06:54:09.117Z,74.30
2018-10-21T06:54:41.739Z,74.40
2018-10-21T06:55:14.396Z,74.50
2018-10-21T06:55:47.036Z,74.50
2018-10-21T06:56:19.701Z,74.60
2018-10-21T06:56:52.554Z,74.60
2018-10-21T06:57:25.947Z,74.30
2018-10-21T06:57:58.518Z,74.30
2018-10-21T06:58:31.160Z,74.20
2018-10-21T06:59:04.131Z,74.10
2018-10-21T06:59:36.747Z,74.20
2018-10-21T07:00:09.450Z,74.40
2018-10-21T07:00:42.118Z,74.60
2018-10-21T07:01:14.747Z,74.60
2018-10-21T07:01:47.338Z,74.70
2018-10-21T07:02:19.943Z,74.80
2018-10-21T07:02:52.531Z,74.90
2018-10-21T07:03:25.160Z,75.00
2018-10-21T07:03:58.076Z,74.90
2018-10-21T07:04:30.760Z,74.80
2018-10-21T07:05:03.789Z,75.20
2018-10-21T07:06:25.679Z,74.70
2018-10-21T07:06:58.247Z,74.90
2018-10-21T07:07:30.858Z,75.40
2018-10-21T07:08:03.690Z,75.50
2018-10-21T07:08:36.276Z,75.70
2018-10-21T07:09:08.903Z,75.80
2018-10-21T07:09:41.521Z,75.90
2018-10-21T07:10:14.215Z,76.00
2018-10-21T07:10:46.805Z,76.20
2018-10-21T07:11:19.448Z,76.20
2018-10-21T07:11:52.323Z,76.30
2018-10-21T07:12:24.950Z,76.30
2018-10-21T07:12:57.632Z,76.30